Terminal Aerodrome Forecast
Issued by NWS Sioux Falls, SD

Home | Current Version | Previous Version | Graphics & Text | Print | Product List | Glossary Off
Versions: 1 2 3 4 5 6 7 8 9 10 11 12 13 14

000
FTUS43 KFSD 140500
TAFSUX
TAF
KSUX 140528Z 1406/1506 35020G30KT P6SM OVC100
     FM140900 34018G26KT P6SM BKN150
     FM141300 34015G23KT P6SM SCT150 BKN200
     FM141900 33012G18KT P6SM SCT070
     FM150100 32007KT P6SM SKC=

USA.gov is the U.S. government's official web portal to all federal, state and local government web resources and services.